sensor_id;sensor_type;location;lat;lon;timestamp;P1;durP1;ratioP1;P2;durP2;ratioP2
26484;SDS011;18083;50.560;7.262;2022-10-16T00:00:53;4.03;;;3.30;;
26484;SDS011;18083;50.560;7.262;2022-10-16T00:03:20;4.40;;;3.87;;
26484;SDS011;18083;50.560;7.262;2022-10-16T00:05:47;4.85;;;3.72;;
26484;SDS011;18083;50.560;7.262;2022-10-16T00:08:15;4.53;;;3.92;;
26484;SDS011;18083;50.560;7.262;2022-10-16T00:10:42;14.33;;;3.98;;
26484;SDS011;18083;50.560;7.262;2022-10-16T00:13:10;4.55;;;3.37;;
26484;SDS011;18083;50.560;7.262;2022-10-16T00:15:37;4.40;;;3.60;;
26484;SDS011;18083;50.560;7.262;2022-10-16T00:18:05;8.05;;;4.45;;
26484;SDS011;18083;50.560;7.262;2022-10-16T00:20:35;5.92;;;3.52;;
26484;SDS011;18083;50.560;7.262;2022-10-16T00:23:04;5.58;;;3.60;;
26484;SDS011;18083;50.560;7.262;2022-10-16T00:25:32;9.25;;;3.55;;
26484;SDS011;18083;50.560;7.262;2022-10-16T00:28:00;4.87;;;3.40;;
26484;SDS011;18083;50.560;7.262;2022-10-16T00:30:27;8.00;;;4.37;;
26484;SDS011;18083;50.560;7.262;2022-10-16T00:32:55;3.47;;;3.17;;
26484;SDS011;18083;50.560;7.262;2022-10-16T00:35:22;7.10;;;3.45;;
26484;SDS011;18083;50.560;7.262;2022-10-16T00:37:50;5.28;;;3.85;;
26484;SDS011;18083;50.560;7.262;2022-10-16T00:40:17;3.35;;;2.83;;
26484;SDS011;18083;50.560;7.262;2022-10-16T00:42:44;3.58;;;3.02;;
26484;SDS011;18083;50.560;7.262;2022-10-16T00:45:12;5.05;;;3.67;;
26484;SDS011;18083;50.560;7.262;2022-10-16T00:47:40;4.40;;;3.00;;
26484;SDS011;18083;50.560;7.262;2022-10-16T00:52:38;8.30;;;3.00;;
26484;SDS011;18083;50.560;7.262;2022-10-16T00:55:06;3.15;;;2.45;;
26484;SDS011;18083;50.560;7.262;2022-10-16T00:57:33;6.05;;;2.75;;
26484;SDS011;18083;50.560;7.262;2022-10-16T01:00:03;3.33;;;3.02;;
26484;SDS011;18083;50.560;7.262;2022-10-16T01:02:29;3.62;;;2.65;;
26484;SDS011;18083;50.560;7.262;2022-10-16T01:04:57;6.55;;;3.10;;
26484;SDS011;18083;50.560;7.262;2022-10-16T01:07:31;3.10;;;2.77;;
26484;SDS011;18083;50.560;7.262;2022-10-16T01:10:06;4.53;;;2.77;;
26484;SDS011;18083;50.560;7.262;2022-10-16T01:12:38;4.47;;;3.22;;
26484;SDS011;18083;50.560;7.262;2022-10-16T01:15:10;5.80;;;3.33;;
26484;SDS011;18083;50.560;7.262;2022-10-16T01:17:36;4.55;;;3.90;;
26484;SDS011;18083;50.560;7.262;2022-10-16T01:20:07;6.42;;;3.37;;
26484;SDS011;18083;50.560;7.262;2022-10-16T01:22:40;7.03;;;3.92;;
26484;SDS011;18083;50.560;7.262;2022-10-16T01:25:09;6.40;;;4.03;;
26484;SDS011;18083;50.560;7.262;2022-10-16T01:27:36;7.08;;;4.45;;
26484;SDS011;18083;50.560;7.262;2022-10-16T01:30:17;6.08;;;3.95;;
26484;SDS011;18083;50.560;7.262;2022-10-16T01:32:42;5.12;;;3.98;;
26484;SDS011;18083;50.560;7.262;2022-10-16T01:35:11;7.17;;;3.58;;
26484;SDS011;18083;50.560;7.262;2022-10-16T01:37:40;5.37;;;3.52;;
26484;SDS011;18083;50.560;7.262;2022-10-16T01:40:09;3.92;;;3.35;;
26484;SDS011;18083;50.560;7.262;2022-10-16T01:42:38;5.85;;;3.40;;
26484;SDS011;18083;50.560;7.262;2022-10-16T01:45:05;5.85;;;3.25;;
26484;SDS011;18083;50.560;7.262;2022-10-16T01:47:34;5.10;;;3.37;;
26484;SDS011;18083;50.560;7.262;2022-10-16T01:50:02;4.30;;;2.90;;
26484;SDS011;18083;50.560;7.262;2022-10-16T01:52:37;6.08;;;3.72;;
26484;SDS011;18083;50.560;7.262;2022-10-16T01:55:06;4.33;;;3.20;;
26484;SDS011;18083;50.560;7.262;2022-10-16T01:57:35;6.12;;;3.42;;
26484;SDS011;18083;50.560;7.262;2022-10-16T02:00:05;4.95;;;3.25;;
26484;SDS011;18083;50.560;7.262;2022-10-16T02:02:32;13.40;;;3.87;;
26484;SDS011;18083;50.560;7.262;2022-10-16T02:05:17;5.28;;;2.70;;
26484;SDS011;18083;50.560;7.262;2022-10-16T02:07:44;3.77;;;2.90;;
26484;SDS011;18083;50.560;7.262;2022-10-16T02:10:11;4.20;;;3.15;;
26484;SDS011;18083;50.560;7.262;2022-10-16T02:12:40;5.15;;;3.33;;
26484;SDS011;18083;50.560;7.262;2022-10-16T02:15:08;6.08;;;3.80;;
26484;SDS011;18083;50.560;7.262;2022-10-16T02:17:35;5.42;;;3.95;;
26484;SDS011;18083;50.560;7.262;2022-10-16T02:20:03;5.95;;;3.12;;
26484;SDS011;18083;50.560;7.262;2022-10-16T02:22:34;9.93;;;3.42;;
26484;SDS011;18083;50.560;7.262;2022-10-16T02:30:05;7.60;;;3.35;;
26484;SDS011;18083;50.560;7.262;2022-10-16T02:32:31;3.60;;;2.98;;
26484;SDS011;18083;50.560;7.262;2022-10-16T02:34:59;7.33;;;2.98;;
26484;SDS011;18083;50.560;7.262;2022-10-16T02:37:27;4.50;;;3.25;;
26484;SDS011;18083;50.560;7.262;2022-10-16T02:39:56;5.58;;;3.85;;
26484;SDS011;18083;50.560;7.262;2022-10-16T02:42:33;4.67;;;3.75;;
26484;SDS011;18083;50.560;7.262;2022-10-16T02:44:58;3.62;;;3.17;;
26484;SDS011;18083;50.560;7.262;2022-10-16T02:47:26;8.25;;;3.72;;
26484;SDS011;18083;50.560;7.262;2022-10-16T02:49:53;5.78;;;3.95;;
26484;SDS011;18083;50.560;7.262;2022-10-16T02:52:20;4.95;;;3.55;;
26484;SDS011;18083;50.560;7.262;2022-10-16T02:54:48;5.12;;;2.70;;
26484;SDS011;18083;50.560;7.262;2022-10-16T02:57:15;2.90;;;2.60;;
26484;SDS011;18083;50.560;7.262;2022-10-16T02:59:42;4.62;;;3.22;;
26484;SDS011;18083;50.560;7.262;2022-10-16T03:02:10;3.40;;;3.10;;
26484;SDS011;18083;50.560;7.262;2022-10-16T03:04:37;2.62;;;2.42;;
26484;SDS011;18083;50.560;7.262;2022-10-16T03:07:05;4.08;;;3.05;;
26484;SDS011;18083;50.560;7.262;2022-10-16T03:09:32;3.60;;;2.90;;
26484;SDS011;18083;50.560;7.262;2022-10-16T03:12:00;3.87;;;2.50;;
26484;SDS011;18083;50.560;7.262;2022-10-16T03:14:27;6.67;;;2.90;;
26484;SDS011;18083;50.560;7.262;2022-10-16T03:16:54;3.42;;;2.05;;
26484;SDS011;18083;50.560;7.262;2022-10-16T03:19:22;2.22;;;1.95;;
26484;SDS011;18083;50.560;7.262;2022-10-16T03:21:49;3.27;;;3.02;;
26484;SDS011;18083;50.560;7.262;2022-10-16T03:24:16;3.72;;;2.33;;
26484;SDS011;18083;50.560;7.262;2022-10-16T03:26:44;5.15;;;2.20;;
26484;SDS011;18083;50.560;7.262;2022-10-16T03:29:11;2.92;;;2.08;;
26484;SDS011;18083;50.560;7.262;2022-10-16T03:31:39;5.22;;;2.40;;
26484;SDS011;18083;50.560;7.262;2022-10-16T03:34:06;5.33;;;2.15;;
26484;SDS011;18083;50.560;7.262;2022-10-16T03:36:34;2.58;;;2.33;;
26484;SDS011;18083;50.560;7.262;2022-10-16T03:39:01;2.25;;;1.70;;
26484;SDS011;18083;50.560;7.262;2022-10-16T03:41:28;3.42;;;1.70;;
26484;SDS011;18083;50.560;7.262;2022-10-16T03:43:56;2.35;;;2.08;;
26484;SDS011;18083;50.560;7.262;2022-10-16T03:46:23;2.27;;;1.77;;
26484;SDS011;18083;50.560;7.262;2022-10-16T03:48:50;4.00;;;2.77;;
26484;SDS011;18083;50.560;7.262;2022-10-16T03:51:18;3.08;;;2.00;;
26484;SDS011;18083;50.560;7.262;2022-10-16T03:53:45;2.22;;;2.02;;
26484;SDS011;18083;50.560;7.262;2022-10-16T03:56:12;3.70;;;1.85;;
26484;SDS011;18083;50.560;7.262;2022-10-16T03:58:40;5.42;;;2.55;;
26484;SDS011;18083;50.560;7.262;2022-10-16T04:01:07;6.87;;;2.50;;
26484;SDS011;18083;50.560;7.262;2022-10-16T04:03:35;4.37;;;3.00;;
26484;SDS011;18083;50.560;7.262;2022-10-16T04:06:02;3.08;;;2.47;;
26484;SDS011;18083;50.560;7.262;2022-10-16T04:08:29;4.20;;;2.33;;
26484;SDS011;18083;50.560;7.262;2022-10-16T04:10:57;5.17;;;3.22;;
26484;SDS011;18083;50.560;7.262;2022-10-16T04:13:24;5.70;;;2.85;;
26484;SDS011;18083;50.560;7.262;2022-10-16T04:15:52;9.58;;;3.30;;
26484;SDS011;18083;50.560;7.262;2022-10-16T04:18:19;4.95;;;2.92;;
26484;SDS011;18083;50.560;7.262;2022-10-16T04:20:46;2.85;;;2.50;;
26484;SDS011;18083;50.560;7.262;2022-10-16T04:23:13;6.33;;;2.83;;
26484;SDS011;18083;50.560;7.262;2022-10-16T04:25:41;4.30;;;2.83;;
26484;SDS011;18083;50.560;7.262;2022-10-16T04:28:08;3.33;;;2.98;;
26484;SDS011;18083;50.560;7.262;2022-10-16T04:30:37;6.15;;;2.67;;
26484;SDS011;18083;50.560;7.262;2022-10-16T04:33:04;7.67;;;3.22;;
26484;SDS011;18083;50.560;7.262;2022-10-16T04:35:32;6.17;;;3.00;;
26484;SDS011;18083;50.560;7.262;2022-10-16T04:37:59;4.47;;;2.65;;
26484;SDS011;18083;50.560;7.262;2022-10-16T04:40:27;5.83;;;3.08;;
26484;SDS011;18083;50.560;7.262;2022-10-16T04:42:54;3.60;;;3.17;;
26484;SDS011;18083;50.560;7.262;2022-10-16T04:45:21;5.70;;;3.05;;
26484;SDS011;18083;50.560;7.262;2022-10-16T04:47:49;4.15;;;3.08;;
26484;SDS011;18083;50.560;7.262;2022-10-16T04:50:16;5.47;;;3.85;;
26484;SDS011;18083;50.560;7.262;2022-10-16T04:52:43;5.58;;;3.00;;
26484;SDS011;18083;50.560;7.262;2022-10-16T04:55:11;5.28;;;3.70;;
26484;SDS011;18083;50.560;7.262;2022-10-16T04:57:39;5.37;;;3.08;;
26484;SDS011;18083;50.560;7.262;2022-10-16T05:00:07;14.95;;;4.10;;
26484;SDS011;18083;50.560;7.262;2022-10-16T05:02:35;3.55;;;3.22;;
26484;SDS011;18083;50.560;7.262;2022-10-16T05:05:02;4.92;;;3.52;;
26484;SDS011;18083;50.560;7.262;2022-10-16T05:07:29;4.40;;;3.40;;
26484;SDS011;18083;50.560;7.262;2022-10-16T05:09:57;3.55;;;2.87;;
26484;SDS011;18083;50.560;7.262;2022-10-16T05:12:24;7.22;;;3.20;;
26484;SDS011;18083;50.560;7.262;2022-10-16T05:14:51;7.42;;;4.35;;
26484;SDS011;18083;50.560;7.262;2022-10-16T05:17:19;4.50;;;4.00;;
26484;SDS011;18083;50.560;7.262;2022-10-16T05:19:46;4.97;;;4.55;;
26484;SDS011;18083;50.560;7.262;2022-10-16T05:22:14;4.83;;;4.00;;
26484;SDS011;18083;50.560;7.262;2022-10-16T05:24:41;7.40;;;4.72;;
26484;SDS011;18083;50.560;7.262;2022-10-16T05:27:09;7.85;;;3.90;;
26484;SDS011;18083;50.560;7.262;2022-10-16T05:29:37;5.12;;;4.35;;
26484;SDS011;18083;50.560;7.262;2022-10-16T05:32:04;5.80;;;4.62;;
26484;SDS011;18083;50.560;7.262;2022-10-16T05:34:32;5.87;;;3.42;;
26484;SDS011;18083;50.560;7.262;2022-10-16T05:36:59;3.80;;;3.10;;
26484;SDS011;18083;50.560;7.262;2022-10-16T05:39:26;3.30;;;3.02;;
26484;SDS011;18083;50.560;7.262;2022-10-16T05:41:54;8.35;;;4.55;;
26484;SDS011;18083;50.560;7.262;2022-10-16T05:44:21;3.05;;;2.83;;
26484;SDS011;18083;50.560;7.262;2022-10-16T05:46:48;2.72;;;2.52;;
26484;SDS011;18083;50.560;7.262;2022-10-16T05:49:16;3.67;;;2.90;;
26484;SDS011;18083;50.560;7.262;2022-10-16T05:51:43;3.27;;;2.55;;
26484;SDS011;18083;50.560;7.262;2022-10-16T05:54:10;3.50;;;2.47;;
26484;SDS011;18083;50.560;7.262;2022-10-16T05:56:38;3.25;;;2.40;;
26484;SDS011;18083;50.560;7.262;2022-10-16T05:59:05;2.50;;;2.30;;
26484;SDS011;18083;50.560;7.262;2022-10-16T06:01:33;5.35;;;2.55;;
26484;SDS011;18083;50.560;7.262;2022-10-16T06:04:01;2.80;;;2.20;;
26484;SDS011;18083;50.560;7.262;2022-10-16T06:06:28;5.20;;;2.15;;
26484;SDS011;18083;50.560;7.262;2022-10-16T06:08:57;2.15;;;1.67;;
26484;SDS011;18083;50.560;7.262;2022-10-16T06:11:28;2.55;;;2.35;;
26484;SDS011;18083;50.560;7.262;2022-10-16T06:13:55;3.42;;;1.98;;
26484;SDS011;18083;50.560;7.262;2022-10-16T06:16:24;4.78;;;2.10;;
26484;SDS011;18083;50.560;7.262;2022-10-16T06:18:52;2.55;;;1.90;;
26484;SDS011;18083;50.560;7.262;2022-10-16T06:21:20;2.25;;;1.90;;
26484;SDS011;18083;50.560;7.262;2022-10-16T06:23:48;4.08;;;2.22;;
26484;SDS011;18083;50.560;7.262;2022-10-16T06:26:16;2.83;;;2.50;;
26484;SDS011;18083;50.560;7.262;2022-10-16T06:28:44;5.45;;;2.83;;
26484;SDS011;18083;50.560;7.262;2022-10-16T06:31:11;2.45;;;2.25;;
26484;SDS011;18083;50.560;7.262;2022-10-16T06:33:39;2.75;;;2.15;;
26484;SDS011;18083;50.560;7.262;2022-10-16T06:36:07;4.10;;;2.02;;
26484;SDS011;18083;50.560;7.262;2022-10-16T06:38:35;3.40;;;2.20;;
26484;SDS011;18083;50.560;7.262;2022-10-16T06:41:03;1.85;;;1.75;;
26484;SDS011;18083;50.560;7.262;2022-10-16T06:43:31;2.77;;;2.42;;
26484;SDS011;18083;50.560;7.262;2022-10-16T06:45:59;11.05;;;6.78;;
26484;SDS011;18083;50.560;7.262;2022-10-16T06:48:27;14.00;;;9.80;;
26484;SDS011;18083;50.560;7.262;2022-10-16T06:50:56;3.08;;;2.45;;
26484;SDS011;18083;50.560;7.262;2022-10-16T06:53:23;4.17;;;2.55;;
26484;SDS011;18083;50.560;7.262;2022-10-16T06:55:51;10.23;;;4.28;;
26484;SDS011;18083;50.560;7.262;2022-10-16T06:58:18;6.20;;;4.78;;
26484;SDS011;18083;50.560;7.262;2022-10-16T07:00:46;6.53;;;2.62;;
26484;SDS011;18083;50.560;7.262;2022-10-16T07:03:13;3.60;;;2.27;;
26484;SDS011;18083;50.560;7.262;2022-10-16T07:05:41;2.05;;;1.85;;
26484;SDS011;18083;50.560;7.262;2022-10-16T07:08:09;2.42;;;1.75;;
26484;SDS011;18083;50.560;7.262;2022-10-16T07:10:36;1.75;;;1.65;;
26484;SDS011;18083;50.560;7.262;2022-10-16T07:13:03;4.35;;;1.65;;
26484;SDS011;18083;50.560;7.262;2022-10-16T07:15:31;1.20;;;1.10;;
26484;SDS011;18083;50.560;7.262;2022-10-16T07:17:58;3.00;;;1.20;;
26484;SDS011;18083;50.560;7.262;2022-10-16T07:20:26;2.35;;;0.80;;
26484;SDS011;18083;50.560;7.262;2022-10-16T07:22:53;1.52;;;1.42;;
26484;SDS011;18083;50.560;7.262;2022-10-16T07:25:21;1.35;;;1.25;;
26484;SDS011;18083;50.560;7.262;2022-10-16T07:27:48;1.30;;;1.20;;
26484;SDS011;18083;50.560;7.262;2022-10-16T07:30:15;1.07;;;0.95;;
26484;SDS011;18083;50.560;7.262;2022-10-16T07:32:43;1.05;;;0.80;;
26484;SDS011;18083;50.560;7.262;2022-10-16T07:35:10;0.80;;;0.80;;
26484;SDS011;18083;50.560;7.262;2022-10-16T07:37:37;5.65;;;1.22;;
26484;SDS011;18083;50.560;7.262;2022-10-16T07:40:05;0.72;;;0.72;;
26484;SDS011;18083;50.560;7.262;2022-10-16T07:42:32;1.32;;;1.15;;
26484;SDS011;18083;50.560;7.262;2022-10-16T07:45:00;1.02;;;1.02;;
26484;SDS011;18083;50.560;7.262;2022-10-16T07:47:27;3.08;;;1.00;;
26484;SDS011;18083;50.560;7.262;2022-10-16T07:49:54;0.93;;;0.93;;
26484;SDS011;18083;50.560;7.262;2022-10-16T07:52:22;1.90;;;1.05;;
26484;SDS011;18083;50.560;7.262;2022-10-16T07:54:49;2.08;;;1.22;;
26484;SDS011;18083;50.560;7.262;2022-10-16T07:57:17;1.65;;;1.55;;
26484;SDS011;18083;50.560;7.262;2022-10-16T07:59:46;1.35;;;1.25;;
26484;SDS011;18083;50.560;7.262;2022-10-16T08:02:13;2.20;;;1.87;;
26484;SDS011;18083;50.560;7.262;2022-10-16T08:04:40;1.80;;;1.70;;
26484;SDS011;18083;50.560;7.262;2022-10-16T08:07:08;1.77;;;1.55;;
26484;SDS011;18083;50.560;7.262;2022-10-16T08:09:36;1.77;;;1.52;;
26484;SDS011;18083;50.560;7.262;2022-10-16T08:12:03;1.37;;;1.27;;
26484;SDS011;18083;50.560;7.262;2022-10-16T08:14:31;0.82;;;0.78;;
26484;SDS011;18083;50.560;7.262;2022-10-16T08:16:58;1.35;;;0.88;;
26484;SDS011;18083;50.560;7.262;2022-10-16T08:19:27;1.30;;;1.20;;
26484;SDS011;18083;50.560;7.262;2022-10-16T08:21:55;2.50;;;0.90;;
26484;SDS011;18083;50.560;7.262;2022-10-16T08:24:22;2.40;;;0.80;;
26484;SDS011;18083;50.560;7.262;2022-10-16T08:26:49;1.10;;;1.00;;
26484;SDS011;18083;50.560;7.262;2022-10-16T08:29:17;1.17;;;1.07;;
26484;SDS011;18083;50.560;7.262;2022-10-16T08:31:44;1.85;;;0.88;;
26484;SDS011;18083;50.560;7.262;2022-10-16T08:34:11;0.80;;;0.57;;
26484;SDS011;18083;50.560;7.262;2022-10-16T08:36:39;0.95;;;0.95;;
26484;SDS011;18083;50.560;7.262;2022-10-16T08:39:06;0.95;;;0.95;;
26484;SDS011;18083;50.560;7.262;2022-10-16T08:49:31;1.15;;;0.85;;
26484;SDS011;18083;50.560;7.262;2022-10-16T08:51:59;1.55;;;1.00;;
26484;SDS011;18083;50.560;7.262;2022-10-16T08:54:31;0.78;;;0.75;;
26484;SDS011;18083;50.560;7.262;2022-10-16T08:57:20;1.12;;;0.80;;
26484;SDS011;18083;50.560;7.262;2022-10-16T08:59:32;0.88;;;0.88;;
26484;SDS011;18083;50.560;7.262;2022-10-16T09:02:02;1.32;;;0.93;;
26484;SDS011;18083;50.560;7.262;2022-10-16T09:04:38;0.98;;;0.90;;
26484;SDS011;18083;50.560;7.262;2022-10-16T09:15:07;3.10;;;1.98;;
26484;SDS011;18083;50.560;7.262;2022-10-16T09:17:32;2.45;;;1.45;;
26484;SDS011;18083;50.560;7.262;2022-10-16T09:20:03;1.00;;;1.00;;
26484;SDS011;18083;50.560;7.262;2022-10-16T09:22:27;1.05;;;0.78;;
26484;SDS011;18083;50.560;7.262;2022-10-16T09:24:57;0.80;;;0.80;;
26484;SDS011;18083;50.560;7.262;2022-10-16T09:27:24;1.05;;;0.90;;
26484;SDS011;18083;50.560;7.262;2022-10-16T09:29:53;2.08;;;0.90;;
26484;SDS011;18083;50.560;7.262;2022-10-16T09:32:20;1.05;;;0.80;;
26484;SDS011;18083;50.560;7.262;2022-10-16T09:34:49;2.98;;;1.00;;
26484;SDS011;18083;50.560;7.262;2022-10-16T09:37:18;2.33;;;0.90;;
26484;SDS011;18083;50.560;7.262;2022-10-16T09:39:50;0.80;;;0.80;;
26484;SDS011;18083;50.560;7.262;2022-10-16T09:42:22;1.82;;;1.10;;
26484;SDS011;18083;50.560;7.262;2022-10-16T09:44:49;2.30;;;0.98;;
26484;SDS011;18083;50.560;7.262;2022-10-16T09:47:23;1.15;;;1.00;;
26484;SDS011;18083;50.560;7.262;2022-10-16T09:50:02;1.07;;;1.00;;
26484;SDS011;18083;50.560;7.262;2022-10-16T09:52:32;1.90;;;0.60;;
26484;SDS011;18083;50.560;7.262;2022-10-16T09:55:01;1.35;;;0.60;;
26484;SDS011;18083;50.560;7.262;2022-10-16T09:57:29;2.15;;;0.93;;
26484;SDS011;18083;50.560;7.262;2022-10-16T09:59:57;0.70;;;0.70;;
26484;SDS011;18083;50.560;7.262;2022-10-16T10:02:34;2.42;;;0.90;;
26484;SDS011;18083;50.560;7.262;2022-10-16T10:05:02;0.78;;;0.62;;
26484;SDS011;18083;50.560;7.262;2022-10-16T10:07:32;1.22;;;1.10;;
26484;SDS011;18083;50.560;7.262;2022-10-16T10:10:01;0.60;;;0.60;;
26484;SDS011;18083;50.560;7.262;2022-10-16T10:12:29;1.47;;;0.70;;
26484;SDS011;18083;50.560;7.262;2022-10-16T10:15:03;1.05;;;1.00;;
26484;SDS011;18083;50.560;7.262;2022-10-16T10:17:27;0.90;;;0.80;;
26484;SDS011;18083;50.560;7.262;2022-10-16T10:19:57;0.75;;;0.60;;
26484;SDS011;18083;50.560;7.262;2022-10-16T10:25:00;0.50;;;0.50;;
26484;SDS011;18083;50.560;7.262;2022-10-16T10:35:36;0.65;;;0.60;;
26484;SDS011;18083;50.560;7.262;2022-10-16T10:43:08;0.75;;;0.75;;
26484;SDS011;18083;50.560;7.262;2022-10-16T10:45:42;3.33;;;0.82;;
26484;SDS011;18083;50.560;7.262;2022-10-16T10:48:11;0.80;;;0.60;;
26484;SDS011;18083;50.560;7.262;2022-10-16T10:50:42;0.57;;;0.57;;
26484;SDS011;18083;50.560;7.262;2022-10-16T10:59:01;0.82;;;0.60;;
26484;SDS011;18083;50.560;7.262;2022-10-16T11:06:26;0.78;;;0.78;;
26484;SDS011;18083;50.560;7.262;2022-10-16T11:09:00;1.22;;;0.70;;
26484;SDS011;18083;50.560;7.262;2022-10-16T11:11:35;3.50;;;0.93;;
26484;SDS011;18083;50.560;7.262;2022-10-16T11:16:22;0.88;;;0.60;;
26484;SDS011;18083;50.560;7.262;2022-10-16T11:21:19;0.50;;;0.50;;
26484;SDS011;18083;50.560;7.262;2022-10-16T11:23:55;1.45;;;0.70;;
26484;SDS011;18083;50.560;7.262;2022-10-16T11:26:30;0.72;;;0.72;;
26484;SDS011;18083;50.560;7.262;2022-10-16T11:28:54;0.60;;;0.60;;
26484;SDS011;18083;50.560;7.262;2022-10-16T11:31:29;3.75;;;0.82;;
26484;SDS011;18083;50.560;7.262;2022-10-16T11:34:06;0.80;;;0.65;;
26484;SDS011;18083;50.560;7.262;2022-10-16T11:36:35;1.37;;;1.17;;
26484;SDS011;18083;50.560;7.262;2022-10-16T11:39:04;0.95;;;0.78;;
26484;SDS011;18083;50.560;7.262;2022-10-16T11:41:35;1.15;;;1.05;;
26484;SDS011;18083;50.560;7.262;2022-10-16T11:49:30;2.37;;;0.78;;
26484;SDS011;18083;50.560;7.262;2022-10-16T11:52:17;0.50;;;0.50;;
26484;SDS011;18083;50.560;7.262;2022-10-16T11:57:32;1.10;;;0.82;;
26484;SDS011;18083;50.560;7.262;2022-10-16T12:02:50;0.65;;;0.60;;
26484;SDS011;18083;50.560;7.262;2022-10-16T12:08:06;0.80;;;0.72;;
26484;SDS011;18083;50.560;7.262;2022-10-16T12:10:34;0.50;;;0.50;;
26484;SDS011;18083;50.560;7.262;2022-10-16T12:13:26;2.62;;;0.93;;
26484;SDS011;18083;50.560;7.262;2022-10-16T12:15:33;1.22;;;0.90;;
26484;SDS011;18083;50.560;7.262;2022-10-16T12:18:00;0.60;;;0.60;;
26484;SDS011;18083;50.560;7.262;2022-10-16T12:20:29;0.60;;;0.60;;
26484;SDS011;18083;50.560;7.262;2022-10-16T12:25:33;2.05;;;0.60;;
26484;SDS011;18083;50.560;7.262;2022-10-16T12:28:02;0.60;;;0.60;;
26484;SDS011;18083;50.560;7.262;2022-10-16T12:30:31;2.30;;;0.98;;
26484;SDS011;18083;50.560;7.262;2022-10-16T12:33:05;1.30;;;0.80;;
26484;SDS011;18083;50.560;7.262;2022-10-16T12:35:42;1.10;;;0.55;;
26484;SDS011;18083;50.560;7.262;2022-10-16T12:39:00;1.00;;;0.70;;
26484;SDS011;18083;50.560;7.262;2022-10-16T12:40:37;0.50;;;0.50;;
26484;SDS011;18083;50.560;7.262;2022-10-16T12:43:12;1.15;;;0.82;;
26484;SDS011;18083;50.560;7.262;2022-10-16T12:45:39;1.45;;;0.68;;
26484;SDS011;18083;50.560;7.262;2022-10-16T12:48:18;0.85;;;0.85;;
26484;SDS011;18083;50.560;7.262;2022-10-16T12:50:36;0.80;;;0.80;;
26484;SDS011;18083;50.560;7.262;2022-10-16T12:53:17;3.47;;;0.70;;
26484;SDS011;18083;50.560;7.262;2022-10-16T12:55:42;2.37;;;0.55;;
26484;SDS011;18083;50.560;7.262;2022-10-16T13:00:57;1.52;;;0.75;;
26484;SDS011;18083;50.560;7.262;2022-10-16T13:09:07;0.82;;;0.82;;
26484;SDS011;18083;50.560;7.262;2022-10-16T13:17:45;0.72;;;0.70;;
26484;SDS011;18083;50.560;7.262;2022-10-16T13:19:29;0.90;;;0.90;;
26484;SDS011;18083;50.560;7.262;2022-10-16T13:22:04;1.27;;;0.70;;
26484;SDS011;18083;50.560;7.262;2022-10-16T13:27:20;0.62;;;0.62;;
26484;SDS011;18083;50.560;7.262;2022-10-16T13:29:41;0.60;;;0.60;;
26484;SDS011;18083;50.560;7.262;2022-10-16T13:32:09;2.30;;;0.95;;
26484;SDS011;18083;50.560;7.262;2022-10-16T13:34:45;0.75;;;0.75;;
26484;SDS011;18083;50.560;7.262;2022-10-16T13:37:20;1.27;;;1.17;;
26484;SDS011;18083;50.560;7.262;2022-10-16T13:39:47;1.65;;;0.47;;
26484;SDS011;18083;50.560;7.262;2022-10-16T13:42:25;3.05;;;1.45;;
26484;SDS011;18083;50.560;7.262;2022-10-16T13:44:53;0.68;;;0.68;;
26484;SDS011;18083;50.560;7.262;2022-10-16T13:47:21;3.30;;;1.20;;
26484;SDS011;18083;50.560;7.262;2022-10-16T13:49:59;1.72;;;0.90;;
26484;SDS011;18083;50.560;7.262;2022-10-16T13:52:26;0.60;;;0.60;;
26484;SDS011;18083;50.560;7.262;2022-10-16T13:54:54;0.85;;;0.85;;
26484;SDS011;18083;50.560;7.262;2022-10-16T13:57:22;5.22;;;0.93;;
26484;SDS011;18083;50.560;7.262;2022-10-16T13:59:50;0.75;;;0.75;;
26484;SDS011;18083;50.560;7.262;2022-10-16T14:02:28;1.52;;;0.80;;
26484;SDS011;18083;50.560;7.262;2022-10-16T14:04:55;1.85;;;0.75;;
26484;SDS011;18083;50.560;7.262;2022-10-16T14:07:25;0.65;;;0.60;;
26484;SDS011;18083;50.560;7.262;2022-10-16T14:09:53;0.68;;;0.50;;
26484;SDS011;18083;50.560;7.262;2022-10-16T14:12:21;1.00;;;0.80;;
26484;SDS011;18083;50.560;7.262;2022-10-16T14:14:49;1.40;;;0.60;;
26484;SDS011;18083;50.560;7.262;2022-10-16T14:17:27;0.57;;;0.57;;
26484;SDS011;18083;50.560;7.262;2022-10-16T14:19:56;0.85;;;0.62;;
26484;SDS011;18083;50.560;7.262;2022-10-16T14:22:33;0.50;;;0.50;;
26484;SDS011;18083;50.560;7.262;2022-10-16T14:25:02;0.95;;;0.55;;
26484;SDS011;18083;50.560;7.262;2022-10-16T14:27:31;0.62;;;0.45;;
26484;SDS011;18083;50.560;7.262;2022-10-16T14:32:36;0.62;;;0.60;;
26484;SDS011;18083;50.560;7.262;2022-10-16T14:35:04;0.55;;;0.55;;
26484;SDS011;18083;50.560;7.262;2022-10-16T14:37:31;1.55;;;0.60;;
26484;SDS011;18083;50.560;7.262;2022-10-16T14:39:59;0.90;;;0.65;;
26484;SDS011;18083;50.560;7.262;2022-10-16T14:42:27;0.85;;;0.70;;
26484;SDS011;18083;50.560;7.262;2022-10-16T14:44:55;1.07;;;0.57;;
26484;SDS011;18083;50.560;7.262;2022-10-16T14:47:23;0.50;;;0.50;;
26484;SDS011;18083;50.560;7.262;2022-10-16T14:49:53;0.80;;;0.80;;
26484;SDS011;18083;50.560;7.262;2022-10-16T14:52:25;0.70;;;0.70;;
26484;SDS011;18083;50.560;7.262;2022-10-16T14:54:52;1.75;;;0.55;;
26484;SDS011;18083;50.560;7.262;2022-10-16T14:57:23;0.68;;;0.68;;
26484;SDS011;18083;50.560;7.262;2022-10-16T14:59:51;1.25;;;0.72;;
26484;SDS011;18083;50.560;7.262;2022-10-16T15:04:53;0.90;;;0.75;;
26484;SDS011;18083;50.560;7.262;2022-10-16T15:07:20;0.60;;;0.60;;
26484;SDS011;18083;50.560;7.262;2022-10-16T15:09:48;1.02;;;0.70;;
26484;SDS011;18083;50.560;7.262;2022-10-16T15:12:16;6.22;;;1.10;;
26484;SDS011;18083;50.560;7.262;2022-10-16T15:14:43;0.90;;;0.60;;
26484;SDS011;18083;50.560;7.262;2022-10-16T15:17:11;2.42;;;0.98;;
26484;SDS011;18083;50.560;7.262;2022-10-16T15:19:38;1.35;;;1.30;;
26484;SDS011;18083;50.560;7.262;2022-10-16T15:22:05;1.00;;;1.00;;
26484;SDS011;18083;50.560;7.262;2022-10-16T15:24:33;1.42;;;1.15;;
26484;SDS011;18083;50.560;7.262;2022-10-16T15:27:00;1.10;;;1.10;;
26484;SDS011;18083;50.560;7.262;2022-10-16T15:29:27;3.60;;;0.90;;
26484;SDS011;18083;50.560;7.262;2022-10-16T15:31:55;1.32;;;0.93;;
26484;SDS011;18083;50.560;7.262;2022-10-16T15:34:22;1.02;;;0.82;;
26484;SDS011;18083;50.560;7.262;2022-10-16T15:36:49;1.10;;;0.80;;
26484;SDS011;18083;50.560;7.262;2022-10-16T15:39:18;1.27;;;0.80;;
26484;SDS011;18083;50.560;7.262;2022-10-16T15:41:46;1.17;;;1.00;;
26484;SDS011;18083;50.560;7.262;2022-10-16T15:44:17;0.98;;;0.98;;
26484;SDS011;18083;50.560;7.262;2022-10-16T15:46:44;1.10;;;0.80;;
26484;SDS011;18083;50.560;7.262;2022-10-16T15:49:12;2.00;;;0.95;;
26484;SDS011;18083;50.560;7.262;2022-10-16T15:51:40;0.85;;;0.82;;
26484;SDS011;18083;50.560;7.262;2022-10-16T15:54:08;0.60;;;0.60;;
26484;SDS011;18083;50.560;7.262;2022-10-16T15:56:35;1.45;;;0.80;;
26484;SDS011;18083;50.560;7.262;2022-10-16T15:59:03;1.10;;;0.90;;
26484;SDS011;18083;50.560;7.262;2022-10-16T16:01:34;0.98;;;0.93;;
26484;SDS011;18083;50.560;7.262;2022-10-16T16:04:01;1.07;;;1.00;;
26484;SDS011;18083;50.560;7.262;2022-10-16T16:06:30;1.40;;;1.07;;
26484;SDS011;18083;50.560;7.262;2022-10-16T16:08:58;1.92;;;1.20;;
26484;SDS011;18083;50.560;7.262;2022-10-16T16:11:26;0.80;;;0.80;;
26484;SDS011;18083;50.560;7.262;2022-10-16T16:13:53;1.00;;;1.00;;
26484;SDS011;18083;50.560;7.262;2022-10-16T16:16:21;1.00;;;0.85;;
26484;SDS011;18083;50.560;7.262;2022-10-16T16:18:50;1.05;;;1.00;;
26484;SDS011;18083;50.560;7.262;2022-10-16T16:21:17;1.50;;;1.05;;
26484;SDS011;18083;50.560;7.262;2022-10-16T16:23:45;1.30;;;0.95;;
26484;SDS011;18083;50.560;7.262;2022-10-16T16:26:21;1.30;;;0.90;;
26484;SDS011;18083;50.560;7.262;2022-10-16T16:28:44;0.70;;;0.70;;